Jacobs, Texas
Current Conditions -  °F | °C
As of 2:55 PM on Thursday 18 Dec 2014 (Local Time) from KRFI Reporting Station
Overcast Overcast  
Wind Chill: 52°   Ceiling: 700
Heat Index: 52°   Visibility: 7mi
Dew Point: 49°   Wind: 5mph
Humidity: 90%   Direction: 40°NE
Pressure: 30.1"   Gusts: NA
Location:  32.2818°N, 94.951°W
Report Text: KRFI 182055Z AUTO 04004KT 7SM OVC007 11/10 A3010 RMK AO2 T01100095
Loading
Personal Weather Stations






























Interactive Weather Map New forecast layout! Learn more

10-Day Weather Forecast

Advertisements
Track Severe Weather on mobile